Detall de PIREP

Printer-friendly versionPDF version

[2013/04/15 07:19:00]
Flight IATA:CT0001
Pilot Number:041
Company ICAO:CAT
Aircraft Type:BE20/A
PAX:6
Departing Airport: LEGE
Destination Airport: LELC
Alternate Airport:LEMG
Online: VATSIM
Route:DCT MAMUK H110 SEROX A34 ALT DCT
Flight Level:F130
No Slew and time accel
No pause
Crash detect
Detect pilot in Cockpit between each 30 and 45 minutes
07:19 Zero fuel Weight: 9857 Lbs, Fuel Weight: 2757 Lbs
07:19 VATSIM:LEGE 150700Z VRB01KT 9999 FEW050 12/07 Q1023
07:19 VATSIM:LELC 150700Z VRB02KT CAVOK 18/10 Q1022 NOSIG
07:20 VOICE CATALONIAN
07:25 Parking Brakes off
07:32 Take-off
07:32 Take off Weight: 12573 Lbs
07:32 Wind: 072º @ 001 Knots Heading: 195º
07:32 POS N41º 54´ 04´´ E002º 45´ 38´´
07:32 Gear Up: 136 Knots
07:32 Flaps:1 at 136 Knots
07:32 Flaps:0 at 134 Knots
07:47 Wind:242º@021 Knots Heading: 257º Ground Speed: 207 Knots Altitude 13038 ft
07:47 TOC
07:47 Fuel Weight: 2511 Lb
08:02 Wind:228º@024 Knots Heading: 235º Ground Speed: 219 Knots Altitude 13297 ft
08:17 Wind:228º@024 Knots Heading: 199º Ground Speed: 222 Knots Altitude 13297 ft
08:32 Wind:230º@023 Knots Heading: 200º Ground Speed: 234 Knots Altitude 13297 ft
08:41 TOD
08:41 Fuel Weight: 1895 Lb
08:47 Wind:206º@008 Knots Heading: 183º Ground Speed: 229 Knots Altitude 7972 ft
09:02 Wind:013º@001 Knots Heading: 169º Ground Speed: 202 Knots Altitude 3940 ft
09:03 Flaps:1 at 156 Knots
09:17 Wind:013º@001 Knots Heading: 263º Ground Speed: 157 Knots Altitude 3484 ft
09:21 Gear Down: 151 Knots
09:22 Flaps:2 at 142 Knots
09:28 TouchDown:Rate -173 ft/min Speed: 105 Knots
09:28 Flaps:1 at 77 Knots
09:28 Flaps:0 at 74 Knots
09:28 VATSIM:LELC 150900Z 08004KT 030V150 CAVOK 18/12 Q1023 NOSIG
09:28 Land
09:28 Wind:073º@001 Knots
09:28 Heading: 043º
09:28 Flight Duration: 01:56
09:28 Landing Weight: 11352 Lbs
09:28 POS N37º 46´ 44´´ W000º 48´ 24´´
09:31 Parking brakes on
09:31 Block to Block Duration: 02:06
09:31 Final Fuel: 1488 Lbls
09:31 Spent Fuel: 1269 Lbls
09:31 Flight Length: 396 NM
09:31 TOD Land Length: 142 NM

Exportar CSV

Powered by Drupal - Modified by Danger4k